createdAt,value
2023-05-10T00:00:29.728Z,970.37
2023-05-10T00:01:29.759Z,970.39
2023-05-10T00:02:29.862Z,970.39
2023-05-10T00:03:29.715Z,970.34
2023-05-10T00:04:29.677Z,970.37
2023-05-10T00:05:29.655Z,970.34
2023-05-10T00:06:29.631Z,970.44
2023-05-10T00:07:29.621Z,970.31
2023-05-10T00:08:29.611Z,970.44
2023-05-10T00:09:29.600Z,970.40
2023-05-10T00:10:29.593Z,970.37
2023-05-10T00:11:29.564Z,970.37
2023-05-10T00:12:29.563Z,970.41
2023-05-10T00:13:29.590Z,970.37
2023-05-10T00:14:29.631Z,970.34
2023-05-10T00:15:29.514Z,970.40
2023-05-10T00:16:29.547Z,970.46
2023-05-10T00:17:29.508Z,970.40
2023-05-10T00:18:29.461Z,970.46
2023-05-10T00:19:29.458Z,970.43
2023-05-10T00:20:29.439Z,970.48
2023-05-10T00:21:29.449Z,970.42
2023-05-10T00:22:29.413Z,970.51
2023-05-10T00:23:29.401Z,970.54
2023-05-10T00:24:29.395Z,970.54
2023-05-10T00:25:29.373Z,970.58
2023-05-10T00:26:29.356Z,970.51
2023-05-10T00:27:29.354Z,970.56
2023-05-10T00:28:29.350Z,970.61
2023-05-10T00:29:29.349Z,970.59
2023-05-10T00:30:29.323Z,970.58
2023-05-10T00:31:29.350Z,970.63
2023-05-10T00:32:29.318Z,970.51
2023-05-10T00:33:29.264Z,970.62
2023-05-10T00:34:29.253Z,970.64
2023-05-10T00:35:29.245Z,970.63
2023-05-10T00:36:29.227Z,970.62
2023-05-10T00:37:29.211Z,970.61
2023-05-10T00:38:29.204Z,970.62
2023-05-10T00:39:29.179Z,970.59
2023-05-10T00:40:29.165Z,970.66
2023-05-10T00:41:29.155Z,970.71
2023-05-10T00:42:29.146Z,970.69
2023-05-10T00:43:29.130Z,970.71
2023-05-10T00:44:29.111Z,970.70
2023-05-10T00:45:29.104Z,970.73
2023-05-10T00:46:29.149Z,970.66
2023-05-10T00:47:29.144Z,970.61
2023-05-10T00:48:29.062Z,970.66
2023-05-10T00:49:29.047Z,970.80
2023-05-10T00:50:29.032Z,970.78
2023-05-10T00:51:29.022Z,970.77
2023-05-10T00:52:29.005Z,970.74
2023-05-10T00:53:29.000Z,970.73
2023-05-10T00:54:28.976Z,970.81
2023-05-10T00:55:28.964Z,970.84
2023-05-10T00:56:28.957Z,970.80
2023-05-10T00:57:28.932Z,970.74
2023-05-10T00:58:28.935Z,970.75
2023-05-10T00:59:28.910Z,970.76
2023-05-10T01:00:28.894Z,970.79
2023-05-10T01:01:28.926Z,970.77
2023-05-10T01:02:29.070Z,970.79
2023-05-10T01:03:28.909Z,970.82
2023-05-10T01:04:28.866Z,970.77
2023-05-10T01:05:28.844Z,970.74
2023-05-10T01:06:28.827Z,970.76
2023-05-10T01:07:28.808Z,970.81
2023-05-10T01:08:28.797Z,970.73
2023-05-10T01:09:28.790Z,970.82
2023-05-10T01:10:28.773Z,970.79
2023-05-10T01:11:28.751Z,970.81
2023-05-10T01:12:28.752Z,970.80
2023-05-10T01:13:28.841Z,970.80
2023-05-10T01:14:28.715Z,970.87
2023-05-10T01:15:28.695Z,970.87
2023-05-10T01:16:28.731Z,970.90
2023-05-10T01:17:28.704Z,970.88
2023-05-10T01:18:28.686Z,970.89
2023-05-10T01:19:28.652Z,970.87
2023-05-10T01:20:28.634Z,970.91
2023-05-10T01:21:28.783Z,970.97
2023-05-10T01:22:28.617Z,970.89
2023-05-10T01:23:28.604Z,970.95
2023-05-10T01:24:28.589Z,970.99
2023-05-10T01:25:28.581Z,970.96
2023-05-10T01:26:28.553Z,970.93
2023-05-10T01:27:28.569Z,970.97
2023-05-10T01:28:28.529Z,970.91
2023-05-10T01:29:28.517Z,970.97
2023-05-10T01:30:28.514Z,970.96
2023-05-10T01:31:28.536Z,970.98
2023-05-10T01:32:28.587Z,971.04
2023-05-10T01:33:28.465Z,971.07
2023-05-10T01:34:28.469Z,971.03
2023-05-10T01:35:28.430Z,971.08
2023-05-10T01:36:28.425Z,971.10
2023-05-10T01:37:28.400Z,971.08
2023-05-10T01:38:28.458Z,971.17
2023-05-10T01:39:28.380Z,971.11
2023-05-10T01:40:28.362Z,971.11
2023-05-10T01:41:28.345Z,971.15
2023-05-10T01:42:28.345Z,971.13
2023-05-10T01:43:28.337Z,971.18
2023-05-10T01:44:28.316Z,971.17
2023-05-10T01:45:28.297Z,971.14
2023-05-10T01:46:28.332Z,971.16
2023-05-10T01:47:28.283Z,971.15
2023-05-10T01:48:28.252Z,971.11
2023-05-10T01:49:28.438Z,971.19
2023-05-10T01:50:28.254Z,971.14
2023-05-10T01:51:28.218Z,971.16
2023-05-10T01:52:28.202Z,971.25
2023-05-10T01:53:28.197Z,971.20
2023-05-10T01:54:28.174Z,971.30
2023-05-10T01:55:28.158Z,971.34
2023-05-10T01:56:28.146Z,971.26
2023-05-10T01:57:28.128Z,971.26
2023-05-10T01:58:28.119Z,971.25
2023-05-10T01:59:28.110Z,971.31
2023-05-10T02:00:28.119Z,971.31
2023-05-10T02:01:28.086Z,971.32
2023-05-10T02:02:28.124Z,971.37
2023-05-10T02:03:28.098Z,971.33
2023-05-10T02:04:28.045Z,971.26
2023-05-10T02:05:28.028Z,971.39
2023-05-10T02:06:28.038Z,971.29
2023-05-10T02:07:28.002Z,971.37
2023-05-10T02:08:27.978Z,971.30
2023-05-10T02:09:27.971Z,971.33
2023-05-10T02:10:27.961Z,971.37
2023-05-10T02:11:27.957Z,971.35
2023-05-10T02:12:27.931Z,971.44
2023-05-10T02:13:27.988Z,971.47
2023-05-10T02:14:27.914Z,971.50
2023-05-10T02:15:27.912Z,971.52
2023-05-10T02:16:27.908Z,971.43
2023-05-10T02:17:27.879Z,971.48
2023-05-10T02:18:27.858Z,971.50
2023-05-10T02:19:27.840Z,971.49
2023-05-10T02:20:27.838Z,971.44
2023-05-10T02:21:27.808Z,971.50
2023-05-10T02:22:27.817Z,971.50
2023-05-10T02:23:27.779Z,971.49
2023-05-10T02:24:27.772Z,971.60
2023-05-10T02:25:27.758Z,971.58
2023-05-10T02:26:27.773Z,971.57
2023-05-10T02:27:27.731Z,971.58
2023-05-10T02:28:27.736Z,971.61
2023-05-10T02:29:27.710Z,971.64
2023-05-10T02:30:27.693Z,971.63
2023-05-10T02:31:27.685Z,971.64
2023-05-10T02:32:27.691Z,971.63
2023-05-10T02:33:27.649Z,971.61
2023-05-10T02:34:27.635Z,971.61
2023-05-10T02:35:27.638Z,971.61
2023-05-10T02:36:27.607Z,971.63
2023-05-10T02:37:27.594Z,971.58
2023-05-10T02:38:27.702Z,971.62
2023-05-10T02:39:27.621Z,971.64
2023-05-10T02:40:28.877Z,971.65
2023-05-10T02:41:27.553Z,971.54
2023-05-10T02:42:27.540Z,971.59
2023-05-10T02:43:27.522Z,971.61
2023-05-10T02:44:27.504Z,971.57
2023-05-10T02:45:27.489Z,971.62
2023-05-10T02:46:27.511Z,971.58
2023-05-10T02:47:27.505Z,971.60
2023-05-10T02:48:27.466Z,971.59
2023-05-10T02:49:27.465Z,971.56
2023-05-10T02:50:27.418Z,971.56
2023-05-10T02:51:27.414Z,971.53
2023-05-10T02:52:27.425Z,971.57
2023-05-10T02:53:27.385Z,971.57
2023-05-10T02:54:27.970Z,971.63
2023-05-10T02:55:27.360Z,971.64
2023-05-10T02:56:27.348Z,971.68
2023-05-10T02:57:27.334Z,971.67
2023-05-10T02:58:27.327Z,971.69
2023-05-10T02:59:27.320Z,971.72
2023-05-10T03:00:27.289Z,971.70
2023-05-10T03:01:27.349Z,971.76
2023-05-10T03:02:27.322Z,971.73
2023-05-10T03:03:27.500Z,971.76
2023-05-10T03:04:27.291Z,971.79
2023-05-10T03:05:27.426Z,971.78
2023-05-10T03:06:27.215Z,971.79
2023-05-10T03:07:27.491Z,971.80
2023-05-10T03:08:27.185Z,971.78
2023-05-10T03:09:27.177Z,971.77
2023-05-10T03:10:27.181Z,971.73
2023-05-10T03:11:27.152Z,971.76
2023-05-10T03:12:27.381Z,971.73
2023-05-10T03:13:27.209Z,971.74
2023-05-10T03:14:27.111Z,971.72
2023-05-10T03:15:27.098Z,971.74
2023-05-10T03:16:27.141Z,971.71
2023-05-10T03:17:27.103Z,971.72
2023-05-10T03:18:27.059Z,971.67
2023-05-10T03:19:27.041Z,971.67
2023-05-10T03:20:27.046Z,971.79
2023-05-10T03:21:27.011Z,971.74
2023-05-10T03:22:26.990Z,971.73
2023-05-10T03:23:26.984Z,971.74
2023-05-10T03:24:26.973Z,971.84
2023-05-10T03:25:26.956Z,971.77
2023-05-10T03:26:26.964Z,971.80
2023-05-10T03:27:26.938Z,971.80
2023-05-10T03:28:26.917Z,971.77
2023-05-10T03:29:26.930Z,971.83
2023-05-10T03:30:26.887Z,971.87
2023-05-10T03:31:26.925Z,971.81
2023-05-10T03:32:26.864Z,971.84
2023-05-10T03:33:26.848Z,971.84
2023-05-10T03:34:26.850Z,971.86
2023-05-10T03:35:26.837Z,971.89
2023-05-10T03:36:26.802Z,971.85
2023-05-10T03:37:26.811Z,971.91
2023-05-10T03:38:27.811Z,971.88
2023-05-10T03:39:26.770Z,971.88
2023-05-10T03:40:26.765Z,971.89
2023-05-10T03:41:26.747Z,971.87
2023-05-10T03:42:26.746Z,971.91
2023-05-10T03:43:26.709Z,971.80
2023-05-10T03:44:26.693Z,971.84
2023-05-10T03:45:26.684Z,971.89
2023-05-10T03:46:26.690Z,971.87
2023-05-10T03:47:26.736Z,971.89
2023-05-10T03:48:26.670Z,971.87
2023-05-10T03:49:26.625Z,971.93
2023-05-10T03:50:26.632Z,971.93
2023-05-10T03:51:26.605Z,971.86
2023-05-10T03:52:26.613Z,971.91
2023-05-10T03:53:26.598Z,971.97
2023-05-10T03:54:26.562Z,972.01
2023-05-10T03:55:26.554Z,971.92
2023-05-10T03:56:26.543Z,971.99
2023-05-10T03:57:26.532Z,971.95
2023-05-10T03:58:26.527Z,971.90
2023-05-10T03:59:26.503Z,971.87
2023-05-10T04:00:26.478Z,971.86
2023-05-10T04:01:26.498Z,971.87
2023-05-10T04:02:26.628Z,971.86
2023-05-10T04:03:26.512Z,971.76
2023-05-10T04:04:26.435Z,971.78
2023-05-10T04:05:26.419Z,971.82
2023-05-10T04:06:26.449Z,971.87
2023-05-10T04:07:26.389Z,971.83
2023-05-10T04:08:26.372Z,971.88
2023-05-10T04:09:26.368Z,971.93
2023-05-10T04:10:26.363Z,971.89
2023-05-10T04:11:26.344Z,971.89
2023-05-10T04:12:26.322Z,971.89
2023-05-10T04:13:26.346Z,971.81
2023-05-10T04:14:26.490Z,971.78
2023-05-10T04:15:26.317Z,971.78
2023-05-10T04:16:26.297Z,971.76
2023-05-10T04:17:26.265Z,971.83
2023-05-10T04:18:26.258Z,971.82
2023-05-10T04:19:26.237Z,971.87
2023-05-10T04:20:26.224Z,971.82
2023-05-10T04:21:26.214Z,971.82
2023-05-10T04:22:26.198Z,971.90
2023-05-10T04:23:26.188Z,971.91
2023-05-10T04:24:26.164Z,971.95
2023-05-10T04:25:26.148Z,971.95
2023-05-10T04:26:26.130Z,971.92
2023-05-10T04:27:26.128Z,971.95
2023-05-10T04:28:26.105Z,971.89
2023-05-10T04:29:26.107Z,971.97
2023-05-10T04:30:26.106Z,971.94
2023-05-10T04:31:26.128Z,971.95
2023-05-10T04:32:26.067Z,971.95
2023-05-10T04:33:26.043Z,971.95
2023-05-10T04:34:26.024Z,971.99
2023-05-10T04:35:26.020Z,972.02
2023-05-10T04:36:25.997Z,972.01
2023-05-10T04:37:25.996Z,971.96
2023-05-10T04:38:25.973Z,972.00
2023-05-10T04:39:25.964Z,971.99
2023-05-10T04:40:25.963Z,972.01
2023-05-10T04:41:25.944Z,972.05
2023-05-10T04:42:25.931Z,972.06
2023-05-10T04:43:25.905Z,972.05
2023-05-10T04:44:25.892Z,972.11
2023-05-10T04:45:25.883Z,972.15
2023-05-10T04:46:25.980Z,972.16
2023-05-10T04:47:25.909Z,972.10
2023-05-10T04:48:25.852Z,972.06
2023-05-10T04:49:25.829Z,972.09
2023-05-10T04:50:25.815Z,972.08
2023-05-10T04:51:25.802Z,972.08
2023-05-10T04:52:25.788Z,972.02
2023-05-10T04:53:25.786Z,972.01
2023-05-10T04:54:25.776Z,972.00
2023-05-10T04:55:25.758Z,972.10
2023-05-10T04:56:25.727Z,972.10
2023-05-10T04:57:25.725Z,972.11
2023-05-10T04:58:25.706Z,972.06
2023-05-10T04:59:25.698Z,972.10
2023-05-10T05:00:25.679Z,972.06
2023-05-10T05:01:25.706Z,972.04
2023-05-10T05:02:25.763Z,972.07
2023-05-10T05:03:25.785Z,972.08
2023-05-10T05:04:25.625Z,972.09
2023-05-10T05:05:25.608Z,972.14
2023-05-10T05:06:25.601Z,972.11
2023-05-10T05:07:25.601Z,972.13
2023-05-10T05:08:25.571Z,972.08
2023-05-10T05:09:25.564Z,972.12
2023-05-10T05:10:25.550Z,972.09
2023-05-10T05:11:25.531Z,972.09
2023-05-10T05:12:25.520Z,972.09
2023-05-10T05:13:25.602Z,972.08
2023-05-10T05:14:25.496Z,972.18
2023-05-10T05:15:25.476Z,972.21
2023-05-10T05:16:25.473Z,972.15
2023-05-10T05:17:25.494Z,972.14
2023-05-10T05:18:25.457Z,972.18
2023-05-10T05:19:25.441Z,972.21
2023-05-10T05:20:25.431Z,972.25
2023-05-10T05:21:25.400Z,972.23
2023-05-10T05:22:25.389Z,972.24
2023-05-10T05:23:25.369Z,972.30
2023-05-10T05:24:25.360Z,972.24
2023-05-10T05:25:25.346Z,972.25
2023-05-10T05:26:25.328Z,972.28
2023-05-10T05:27:25.356Z,972.33
2023-05-10T05:28:25.358Z,972.33
2023-05-10T05:29:25.299Z,972.36
2023-05-10T05:30:25.279Z,972.32
2023-05-10T05:31:25.278Z,972.44
2023-05-10T05:32:25.303Z,972.43
2023-05-10T05:33:25.232Z,972.39
2023-05-10T05:34:25.421Z,972.44
2023-05-10T05:35:25.214Z,972.48
2023-05-10T05:36:25.194Z,972.44
2023-05-10T05:37:25.178Z,972.42
2023-05-10T05:38:25.179Z,972.53
2023-05-10T05:39:25.152Z,972.48
2023-05-10T05:40:25.145Z,972.51
2023-05-10T05:41:25.127Z,972.51
2023-05-10T05:42:25.136Z,972.51
2023-05-10T05:43:25.101Z,972.51
2023-05-10T05:44:25.080Z,972.49
2023-05-10T05:45:25.070Z,972.47
2023-05-10T05:46:25.140Z,972.44
2023-05-10T05:47:25.068Z,972.45
2023-05-10T05:48:25.032Z,972.41
2023-05-10T05:49:25.028Z,972.41
2023-05-10T05:50:25.030Z,972.50
2023-05-10T05:51:24.993Z,972.52
2023-05-10T05:52:24.980Z,972.52
2023-05-10T05:53:24.962Z,972.50
2023-05-10T05:54:24.952Z,972.42
2023-05-10T05:55:24.940Z,972.45
2023-05-10T05:56:24.925Z,972.46
2023-05-10T05:57:24.918Z,972.51
2023-05-10T05:58:24.900Z,972.45
2023-05-10T05:59:24.876Z,972.55
2023-05-10T06:00:24.865Z,972.52
2023-05-10T06:01:24.848Z,972.54
2023-05-10T06:02:24.918Z,972.48
2023-05-10T06:03:24.951Z,972.59
2023-05-10T06:04:24.866Z,972.59
2023-05-10T06:05:24.800Z,972.63
2023-05-10T06:06:24.811Z,972.60
2023-05-10T06:07:24.784Z,972.59
2023-05-10T06:08:24.763Z,972.53
2023-05-10T06:09:24.778Z,972.58
2023-05-10T06:10:24.753Z,972.47
2023-05-10T06:11:24.720Z,972.61
2023-05-10T06:12:24.744Z,972.57
2023-05-10T06:13:24.747Z,972.58
2023-05-10T06:14:24.683Z,972.53
2023-05-10T06:15:24.667Z,972.56
2023-05-10T06:16:24.685Z,972.42
2023-05-10T06:17:24.648Z,972.51
2023-05-10T06:18:24.634Z,972.57
2023-05-10T06:19:24.611Z,972.58
2023-05-10T06:20:24.625Z,972.54
2023-05-10T06:21:24.591Z,972.63
2023-05-10T06:22:24.589Z,972.56
2023-05-10T06:23:24.559Z,972.57
2023-05-10T06:24:24.555Z,972.58
2023-05-10T06:25:24.552Z,972.67
2023-05-10T06:26:24.530Z,972.65
2023-05-10T06:27:24.503Z,972.64
2023-05-10T06:28:24.503Z,972.69
2023-05-10T06:29:24.475Z,972.73
2023-05-10T06:30:24.464Z,972.70
2023-05-10T06:31:24.507Z,972.73
2023-05-10T06:32:24.457Z,972.71
2023-05-10T06:33:24.423Z,972.64
2023-05-10T06:34:24.409Z,972.70
2023-05-10T06:35:24.394Z,972.69
2023-05-10T06:36:24.377Z,972.72
2023-05-10T06:37:24.363Z,972.72
2023-05-10T06:38:24.371Z,972.66
2023-05-10T06:39:24.329Z,972.70
2023-05-10T06:40:24.316Z,972.75
2023-05-10T06:41:24.875Z,972.73
2023-05-10T06:42:24.293Z,972.74
2023-05-10T06:43:24.284Z,972.75
2023-05-10T06:44:24.269Z,972.79
2023-05-10T06:45:24.248Z,972.81
2023-05-10T06:46:24.294Z,972.80
2023-05-10T06:47:24.221Z,972.70
2023-05-10T06:48:24.205Z,972.80
2023-05-10T06:49:24.186Z,972.73
2023-05-10T06:50:24.180Z,972.67
2023-05-10T06:51:24.317Z,972.66
2023-05-10T06:52:24.155Z,972.71
2023-05-10T06:53:24.141Z,972.74
2023-05-10T06:54:24.302Z,972.80
2023-05-10T06:55:24.122Z,972.81
2023-05-10T06:56:24.099Z,972.82
2023-05-10T06:58:25.102Z,972.72
2023-05-10T06:59:24.139Z,972.74
2023-05-10T07:00:24.082Z,972.72
2023-05-10T07:01:24.436Z,972.74
2023-05-10T07:02:24.057Z,972.75
2023-05-10T07:03:24.050Z,972.77
2023-05-10T07:04:24.026Z,972.76
2023-05-10T07:05:24.391Z,972.74
2023-05-10T07:06:32.989Z,972.71
2023-05-10T07:07:24.970Z,972.78
2023-05-10T07:08:23.942Z,972.78
2023-05-10T07:09:23.920Z,972.72
2023-05-10T07:10:23.973Z,972.77
2023-05-10T07:11:23.912Z,972.82
2023-05-10T07:12:23.921Z,972.87
2023-05-10T07:13:24.254Z,972.86
2023-05-10T07:14:23.890Z,972.86
2023-05-10T07:15:23.855Z,972.79
2023-05-10T07:16:24.022Z,972.79
2023-05-10T07:17:23.827Z,972.83
2023-05-10T07:18:23.825Z,972.87
2023-05-10T07:19:23.888Z,972.87
2023-05-10T07:20:23.799Z,972.87
2023-05-10T07:21:23.775Z,972.85
2023-05-10T07:22:23.745Z,972.93
2023-05-10T07:23:23.748Z,972.93
2023-05-10T07:24:23.716Z,972.92
2023-05-10T07:25:24.105Z,972.79
2023-05-10T07:26:23.711Z,972.84
2023-05-10T07:27:23.671Z,972.94
2023-05-10T07:28:23.661Z,972.95
2023-05-10T07:29:23.653Z,972.95
2023-05-10T07:30:23.696Z,972.94
2023-05-10T07:31:23.626Z,972.93
2023-05-10T07:32:23.795Z,972.91
2023-05-10T07:33:23.639Z,972.96
2023-05-10T07:34:23.586Z,972.87
2023-05-10T07:35:23.569Z,972.82
2023-05-10T07:36:23.557Z,972.85
2023-05-10T07:37:23.539Z,972.87
2023-05-10T07:38:23.530Z,972.90
2023-05-10T07:39:27.521Z,972.88
2023-05-10T07:40:23.549Z,972.86
2023-05-10T07:41:23.489Z,972.85
2023-05-10T07:42:23.498Z,972.88
2023-05-10T07:43:23.461Z,972.89
2023-05-10T07:44:23.456Z,972.86
2023-05-10T07:45:23.430Z,972.94
2023-05-10T07:46:23.474Z,972.81
2023-05-10T07:47:23.430Z,972.82
2023-05-10T07:48:23.392Z,972.88
2023-05-10T07:49:23.375Z,972.79
2023-05-10T07:50:23.365Z,972.76
2023-05-10T07:51:23.351Z,972.76
2023-05-10T07:52:23.332Z,972.82
2023-05-10T07:53:23.324Z,972.86
2023-05-10T07:54:23.312Z,972.79
2023-05-10T07:55:23.333Z,972.86
2023-05-10T07:56:23.282Z,972.87
2023-05-10T07:57:23.261Z,972.86
2023-05-10T07:58:23.284Z,972.86
2023-05-10T07:59:23.230Z,972.82
2023-05-10T08:00:23.240Z,972.87
2023-05-10T08:01:23.219Z,972.83
2023-05-10T08:02:23.234Z,972.88
2023-05-10T08:03:23.278Z,972.83
2023-05-10T08:04:23.474Z,972.83
2023-05-10T08:05:23.162Z,972.84
2023-05-10T08:06:23.156Z,972.83
2023-05-10T08:07:23.133Z,972.99
2023-05-10T08:08:23.114Z,972.92
2023-05-10T08:09:23.099Z,972.92
2023-05-10T08:10:23.094Z,972.93
2023-05-10T08:11:23.278Z,972.93
2023-05-10T08:12:23.058Z,972.88
2023-05-10T08:13:23.046Z,972.92
2023-05-10T08:14:23.061Z,972.91
2023-05-10T08:15:23.018Z,972.91
2023-05-10T08:16:23.125Z,972.95
2023-05-10T08:17:24.696Z,972.85
2023-05-10T08:18:23.068Z,972.91
2023-05-10T08:19:22.970Z,972.85
2023-05-10T08:20:22.964Z,972.79
2023-05-10T08:21:22.943Z,972.81
2023-05-10T08:22:22.926Z,972.83
2023-05-10T08:23:22.901Z,972.78
2023-05-10T08:24:22.897Z,972.80
2023-05-10T08:25:22.879Z,972.86
2023-05-10T08:26:22.897Z,972.86
2023-05-10T08:27:22.855Z,972.84
2023-05-10T08:28:22.847Z,972.79
2023-05-10T08:29:22.829Z,972.86
2023-05-10T08:30:23.129Z,972.78
2023-05-10T08:31:22.844Z,972.76
2023-05-10T08:32:22.791Z,972.76
2023-05-10T08:33:22.778Z,972.78
2023-05-10T08:34:22.920Z,972.83
2023-05-10T08:35:22.751Z,972.81
2023-05-10T08:36:22.807Z,972.86
2023-05-10T08:37:22.726Z,972.77
2023-05-10T08:38:22.699Z,972.82
2023-05-10T08:39:29.727Z,972.82
2023-05-10T08:40:23.703Z,972.80
2023-05-10T08:41:22.721Z,972.89
2023-05-10T08:42:22.848Z,972.79
2023-05-10T08:43:22.700Z,972.79
2023-05-10T08:44:22.633Z,972.87
2023-05-10T08:45:22.733Z,972.82
2023-05-10T08:46:22.750Z,972.81
2023-05-10T08:47:22.612Z,972.86
2023-05-10T08:48:22.586Z,972.87
2023-05-10T08:49:22.574Z,972.88
2023-05-10T08:50:22.984Z,972.92
2023-05-10T08:51:22.537Z,972.92
2023-05-10T08:52:22.722Z,972.95
2023-05-10T08:53:22.523Z,972.86
2023-05-10T08:54:22.496Z,972.98
2023-05-10T08:55:22.478Z,972.95
2023-05-10T08:56:22.477Z,972.90
2023-05-10T08:57:22.455Z,972.99
2023-05-10T08:58:22.447Z,973.01
2023-05-10T08:59:22.429Z,973.12
2023-05-10T09:00:22.423Z,973.05
2023-05-10T09:01:22.653Z,973.11
2023-05-10T09:02:22.414Z,973.10
2023-05-10T09:03:22.400Z,973.03
2023-05-10T09:04:22.426Z,973.03
2023-05-10T09:05:22.360Z,973.03
2023-05-10T09:06:22.332Z,973.08
2023-05-10T09:07:22.453Z,973.03
2023-05-10T09:08:22.305Z,973.05
2023-05-10T09:09:22.283Z,973.04
2023-05-10T09:10:22.359Z,973.10
2023-05-10T09:11:22.274Z,973.08
2023-05-10T09:12:22.256Z,973.13
2023-05-10T09:13:22.241Z,973.07
2023-05-10T09:14:22.228Z,973.15
2023-05-10T09:15:22.210Z,973.18
2023-05-10T09:16:22.585Z,973.12
2023-05-10T09:17:22.286Z,973.19
2023-05-10T09:18:22.214Z,973.15
2023-05-10T09:19:22.152Z,973.17
2023-05-10T09:20:22.148Z,973.12
2023-05-10T09:21:22.133Z,973.17
2023-05-10T09:22:22.124Z,973.16
2023-05-10T09:23:22.110Z,973.20
2023-05-10T09:24:22.093Z,973.11
2023-05-10T09:25:22.068Z,973.09
2023-05-10T09:26:22.063Z,973.14
2023-05-10T09:27:22.048Z,973.09
2023-05-10T09:28:22.040Z,973.15
2023-05-10T09:29:22.021Z,973.14
2023-05-10T09:30:22.010Z,973.14
2023-05-10T09:31:22.175Z,973.15
2023-05-10T09:32:22.022Z,973.21
2023-05-10T09:33:21.973Z,973.15
2023-05-10T09:34:22.157Z,973.10
2023-05-10T09:35:21.931Z,973.10
2023-05-10T09:36:21.922Z,973.09
2023-05-10T09:37:21.905Z,973.13
2023-05-10T09:38:21.895Z,973.10
2023-05-10T09:39:21.877Z,973.13
2023-05-10T09:40:21.875Z,973.04
2023-05-10T09:41:21.916Z,973.06
2023-05-10T09:42:21.844Z,973.08
2023-05-10T09:43:21.841Z,973.00
2023-05-10T09:44:21.826Z,973.03
2023-05-10T09:45:21.844Z,973.10
2023-05-10T09:46:21.818Z,973.09
2023-05-10T09:47:21.771Z,973.04
2023-05-10T09:48:21.763Z,973.04
2023-05-10T09:49:21.752Z,973.05
2023-05-10T09:50:21.760Z,972.99
2023-05-10T09:51:21.720Z,973.05
2023-05-10T09:52:21.709Z,972.97
2023-05-10T09:53:21.690Z,973.03
2023-05-10T09:54:21.679Z,973.00
2023-05-10T09:55:21.682Z,972.99
2023-05-10T09:56:21.649Z,973.08
2023-05-10T09:57:21.642Z,973.09
2023-05-10T09:58:21.651Z,973.08
2023-05-10T09:59:21.610Z,973.09
2023-05-10T10:00:21.629Z,973.17
2023-05-10T10:01:21.620Z,973.21
2023-05-10T10:02:21.586Z,973.23
2023-05-10T10:03:21.553Z,973.22
2023-05-10T10:04:21.564Z,973.31
2023-05-10T10:05:21.531Z,973.25
2023-05-10T10:06:29.495Z,973.26
2023-05-10T10:07:22.533Z,973.26
2023-05-10T10:08:21.493Z,973.28
2023-05-10T10:09:21.479Z,973.28
2023-05-10T10:10:21.464Z,973.32
2023-05-10T10:11:21.457Z,973.34
2023-05-10T10:12:21.436Z,973.33
2023-05-10T10:13:21.424Z,973.36
2023-05-10T10:14:21.401Z,973.37
2023-05-10T10:15:21.719Z,973.32
2023-05-10T10:16:21.458Z,973.32
2023-05-10T10:17:21.416Z,973.31
2023-05-10T10:18:21.372Z,973.34
2023-05-10T10:19:21.441Z,973.34
2023-05-10T10:20:21.559Z,973.28
2023-05-10T10:21:21.321Z,973.17
2023-05-10T10:22:21.324Z,973.21
2023-05-10T10:23:21.289Z,973.23
2023-05-10T10:24:21.484Z,973.27
2023-05-10T10:25:21.263Z,973.29
2023-05-10T10:26:21.300Z,973.22
2023-05-10T10:27:21.229Z,973.21
2023-05-10T10:28:21.216Z,973.22
2023-05-10T10:29:21.455Z,973.17
2023-05-10T10:30:21.199Z,973.09
2023-05-10T10:31:21.202Z,973.04
2023-05-10T10:32:21.192Z,973.08
2023-05-10T10:33:28.499Z,973.02
2023-05-10T10:34:22.168Z,972.98
2023-05-10T10:35:21.129Z,973.03
2023-05-10T10:36:21.113Z,972.79
2023-05-10T10:37:21.100Z,972.88
2023-05-10T10:38:21.112Z,972.98
2023-05-10T10:39:21.072Z,972.82
2023-05-10T10:40:21.051Z,972.84
2023-05-10T10:41:21.037Z,972.89
2023-05-10T10:42:21.039Z,972.88
2023-05-10T10:43:21.022Z,972.90
2023-05-10T10:44:21.010Z,972.97
2023-05-10T10:45:21.004Z,972.96
2023-05-10T10:46:21.011Z,972.92
2023-05-10T10:47:21.036Z,972.95
2023-05-10T10:48:20.978Z,972.91
2023-05-10T10:49:20.942Z,972.85
2023-05-10T10:50:20.924Z,972.91
2023-05-10T10:51:20.909Z,972.95
2023-05-10T10:52:20.897Z,973.01
2023-05-10T10:53:20.912Z,972.99
2023-05-10T10:54:20.892Z,973.09
2023-05-10T10:55:20.960Z,973.14
2023-05-10T10:56:20.838Z,973.19
2023-05-10T10:57:20.833Z,973.28
2023-05-10T10:58:20.813Z,973.32
2023-05-10T10:59:20.818Z,973.35
2023-05-10T11:00:20.795Z,973.42
2023-05-10T11:01:20.922Z,973.37
2023-05-10T11:02:20.764Z,973.44
2023-05-10T11:03:20.752Z,973.36
2023-05-10T11:04:20.848Z,973.28
2023-05-10T11:05:20.722Z,973.38
2023-05-10T11:06:20.711Z,973.37
2023-05-10T11:07:20.700Z,973.38
2023-05-10T11:08:20.752Z,973.36
2023-05-10T11:09:20.662Z,973.42
2023-05-10T11:10:20.674Z,973.37
2023-05-10T11:11:20.835Z,973.49
2023-05-10T11:12:20.628Z,973.50
2023-05-10T11:13:20.643Z,973.60
2023-05-10T11:14:20.600Z,973.58
2023-05-10T11:15:20.581Z,973.56
2023-05-10T11:16:20.801Z,973.60
2023-05-10T11:17:20.608Z,973.58
2023-05-10T11:18:20.670Z,973.66
2023-05-10T11:19:20.614Z,973.60
2023-05-10T11:20:20.630Z,973.59
2023-05-10T11:21:20.575Z,973.66
2023-05-10T11:22:20.510Z,973.69
2023-05-10T11:23:20.468Z,973.64
2023-05-10T11:24:20.461Z,973.71
2023-05-10T11:25:20.450Z,973.79
2023-05-10T11:26:20.563Z,973.80
2023-05-10T11:27:20.429Z,973.84
2023-05-10T11:28:20.432Z,973.76
2023-05-10T11:29:20.400Z,973.78
2023-05-10T11:30:20.776Z,973.85
2023-05-10T11:31:20.448Z,973.77
2023-05-10T11:32:20.356Z,973.81
2023-05-10T11:33:20.381Z,973.83
2023-05-10T11:34:20.333Z,973.87
2023-05-10T11:35:20.319Z,973.84
2023-05-10T11:36:20.304Z,973.85
2023-05-10T11:37:20.279Z,973.91
2023-05-10T11:38:20.277Z,973.92
2023-05-10T11:39:20.269Z,973.90
2023-05-10T11:40:20.312Z,973.95
2023-05-10T11:41:20.239Z,973.92
2023-05-10T11:42:20.246Z,973.96
2023-05-10T11:43:20.213Z,973.97
2023-05-10T11:44:20.195Z,973.90
2023-05-10T11:45:20.181Z,973.80
2023-05-10T11:46:20.258Z,973.90
2023-05-10T11:47:20.165Z,973.86
2023-05-10T11:48:20.141Z,973.93
2023-05-10T11:49:20.128Z,973.92
2023-05-10T11:50:20.266Z,973.82
2023-05-10T11:51:20.098Z,973.93
2023-05-10T11:52:20.104Z,973.93
2023-05-10T11:53:20.096Z,973.96
2023-05-10T11:54:20.054Z,973.99
2023-05-10T11:55:20.054Z,973.97
2023-05-10T11:56:20.031Z,973.98
2023-05-10T11:57:20.016Z,973.91
2023-05-10T11:58:20.026Z,973.93
2023-05-10T11:59:19.993Z,974.01
2023-05-10T12:00:20.236Z,973.94
2023-05-10T12:01:19.960Z,973.79
2023-05-10T12:02:20.010Z,973.81
2023-05-10T12:03:19.977Z,973.78
2023-05-10T12:04:20.146Z,973.78
2023-05-10T12:05:19.918Z,973.84
2023-05-10T12:06:19.892Z,973.83
2023-05-10T12:07:19.879Z,973.82
2023-05-10T12:08:19.864Z,973.84
2023-05-10T12:09:31.492Z,973.88
2023-05-10T12:10:21.146Z,973.79
2023-05-10T12:11:19.826Z,973.80
2023-05-10T12:12:19.810Z,973.88
2023-05-10T12:13:19.814Z,973.79
2023-05-10T12:14:19.807Z,973.82
2023-05-10T12:15:19.781Z,973.84
2023-05-10T12:16:19.817Z,973.83
2023-05-10T12:17:19.747Z,973.79
2023-05-10T12:18:19.773Z,973.84
2023-05-10T12:19:19.723Z,973.76
2023-05-10T12:20:20.058Z,973.75
2023-05-10T12:21:19.706Z,973.78
2023-05-10T12:22:19.670Z,973.73
2023-05-10T12:23:19.663Z,973.73
2023-05-10T12:24:19.645Z,973.87
2023-05-10T12:25:19.634Z,973.83
2023-05-10T12:26:19.626Z,973.77
2023-05-10T12:27:19.605Z,973.80
2023-05-10T12:28:19.597Z,973.78
2023-05-10T12:29:19.628Z,973.79